createdAt,value
2022-09-10T00:01:28.551Z,95.60
2022-09-10T00:03:56.723Z,95.17
2022-09-10T00:06:26.304Z,95.33
2022-09-10T00:08:56.328Z,94.57
2022-09-10T00:11:25.369Z,94.03
2022-09-10T00:13:55.172Z,93.80
2022-09-10T00:16:23.180Z,94.15
2022-09-10T00:18:51.722Z,94.73
2022-09-10T00:21:21.782Z,94.64
2022-09-10T00:23:50.560Z,94.07
2022-09-10T00:26:21.871Z,93.41
2022-09-10T00:28:50.311Z,93.32
2022-09-10T00:31:21.872Z,92.64
2022-09-10T00:33:50.200Z,91.13
2022-09-10T00:36:21.716Z,91.72
2022-09-10T00:38:50.530Z,92.50
2022-09-10T00:41:19.537Z,93.70
2022-09-10T00:43:55.774Z,90.73
2022-09-10T00:46:34.608Z,91.58
2022-09-10T00:49:07.015Z,90.16
2022-09-10T00:51:36.615Z,91.58
2022-09-10T00:54:06.566Z,92.52
2022-09-10T00:56:35.778Z,92.60
2022-09-10T00:59:05.538Z,92.32
2022-09-10T01:01:36.390Z,92.46
2022-09-10T01:04:06.048Z,93.36
2022-09-10T01:06:34.037Z,93.34
2022-09-10T01:09:03.081Z,92.64
2022-09-10T01:11:43.617Z,93.67
2022-09-10T01:14:28.038Z,93.55
2022-09-10T01:17:07.922Z,94.57
2022-09-10T01:19:59.966Z,94.53
2022-09-10T01:22:38.678Z,94.03
2022-09-10T01:25:16.625Z,94.18
2022-09-10T01:27:48.637Z,94.51
2022-09-10T01:30:19.370Z,94.94
2022-09-10T01:32:57.350Z,94.59
2022-09-10T01:35:30.542Z,95.81
2022-09-10T01:38:04.754Z,95.92
2022-09-10T01:40:33.490Z,95.78
2022-09-10T01:43:04.625Z,95.93
2022-09-10T01:45:37.836Z,96.62
2022-09-10T01:48:25.142Z,97.42
2022-09-10T01:51:04.516Z,97.66
2022-09-10T01:53:52.965Z,98.38
2022-09-10T01:56:35.714Z,96.48
2022-09-10T01:59:11.622Z,96.87
2022-09-10T02:01:46.094Z,95.56
2022-09-10T02:04:16.301Z,96.83
2022-09-10T02:06:47.951Z,97.08
2022-09-10T02:09:17.244Z,96.72
2022-09-10T02:11:47.390Z,95.34
2022-09-10T02:14:17.482Z,94.59
2022-09-10T02:16:48.894Z,94.74
2022-09-10T02:19:18.104Z,96.04
2022-09-10T02:21:46.674Z,96.13
2022-09-10T02:24:15.266Z,94.51
2022-09-10T02:26:45.083Z,95.53
2022-09-10T02:29:15.463Z,94.14
2022-09-10T02:31:45.189Z,93.71
2022-09-10T02:34:13.131Z,93.04
2022-09-10T02:36:41.034Z,94.16
2022-09-10T02:39:09.020Z,94.71
2022-09-10T02:41:38.198Z,94.90
2022-09-10T02:44:06.161Z,95.91
2022-09-10T02:46:34.285Z,95.31
2022-09-10T02:49:03.635Z,97.17
2022-09-10T02:51:31.734Z,97.10
2022-09-10T02:53:59.833Z,97.82
2022-09-10T02:56:27.726Z,97.41
2022-09-10T02:58:55.621Z,98.07
2022-09-10T03:01:24.590Z,98.01
2022-09-10T03:03:55.074Z,98.26
2022-09-10T03:06:25.891Z,98.46
2022-09-10T03:08:55.365Z,98.76
2022-09-10T03:11:24.245Z,98.72
2022-09-10T03:13:52.329Z,99.02
2022-09-10T03:16:20.860Z,100.00
2022-09-10T03:18:49.054Z,100.00
2022-09-10T03:21:20.268Z,100.00
2022-09-10T03:23:51.383Z,100.00
2022-09-10T03:26:21.109Z,100.00
2022-09-10T03:28:50.253Z,100.00
2022-09-10T03:31:18.344Z,100.00
2022-09-10T03:33:46.513Z,100.00
2022-09-10T03:36:14.607Z,100.00
2022-09-10T03:38:42.593Z,100.00
2022-09-10T03:41:12.340Z,100.00
2022-09-10T03:43:40.329Z,100.00
2022-09-10T03:46:08.411Z,100.00
2022-09-10T03:48:36.319Z,100.00
2022-09-10T03:51:04.605Z,100.00
2022-09-10T03:53:32.490Z,100.00
2022-09-10T03:56:00.486Z,100.00
2022-09-10T03:58:29.882Z,100.00
2022-09-10T04:00:57.792Z,100.00
2022-09-10T04:03:26.091Z,100.00
2022-09-10T04:05:54.015Z,100.00
2022-09-10T04:08:22.195Z,100.00
2022-09-10T04:10:50.100Z,100.00
2022-09-10T04:13:18.018Z,100.00
2022-09-10T04:15:47.319Z,100.00
2022-09-10T04:18:15.861Z,100.00
2022-09-10T04:20:47.771Z,100.00
2022-09-10T04:23:17.178Z,100.00
2022-09-10T04:25:45.085Z,100.00
2022-09-10T04:28:13.175Z,100.00
2022-09-10T04:30:41.407Z,100.00
2022-09-10T04:33:11.724Z,100.00
2022-09-10T04:35:40.671Z,100.00
2022-09-10T04:38:09.207Z,100.00
2022-09-10T04:40:38.433Z,100.00
2022-09-10T04:43:06.345Z,100.00
2022-09-10T04:45:34.772Z,100.00
2022-09-10T04:48:06.827Z,100.00
2022-09-10T04:50:36.724Z,97.30
2022-09-10T04:53:04.653Z,98.34
2022-09-10T04:55:33.386Z,96.19
2022-09-10T04:58:01.289Z,97.99
2022-09-10T05:00:29.229Z,99.32
2022-09-10T05:02:57.137Z,99.86
2022-09-10T05:05:25.167Z,98.38
2022-09-10T05:07:54.501Z,98.40
2022-09-10T05:10:23.556Z,99.42
2022-09-10T05:12:51.502Z,99.81
2022-09-10T05:15:19.413Z,99.85
2022-09-10T05:17:48.240Z,99.22
2022-09-10T05:20:16.382Z,97.15
2022-09-10T05:22:44.319Z,100.00
2022-09-10T05:25:13.601Z,99.11
2022-09-10T05:27:41.833Z,97.27
2022-09-10T05:30:10.820Z,94.72
2022-09-10T05:32:40.187Z,89.35
2022-09-10T05:35:09.469Z,89.30
2022-09-10T05:37:37.578Z,87.23
2022-09-10T05:40:07.014Z,85.12
2022-09-10T05:42:36.552Z,85.74
2022-09-10T05:45:04.683Z,85.99
2022-09-10T05:47:32.649Z,83.86
2022-09-10T05:50:00.566Z,80.38
2022-09-10T05:52:28.497Z,82.95
2022-09-10T05:54:57.068Z,80.57
2022-09-10T05:57:25.098Z,78.48
2022-09-10T05:59:54.386Z,77.52
2022-09-10T06:02:24.266Z,76.60
2022-09-10T06:04:52.442Z,75.53
2022-09-10T06:07:20.356Z,76.64
2022-09-10T06:09:48.366Z,78.24
2022-09-10T06:12:17.248Z,75.50
2022-09-10T06:14:45.156Z,76.96
2022-09-10T06:17:14.594Z,75.70
2022-09-10T06:19:44.650Z,75.41
2022-09-10T06:22:12.829Z,77.11
2022-09-10T06:24:40.747Z,80.99
2022-09-10T06:27:09.735Z,77.25
2022-09-10T06:29:37.841Z,77.10
2022-09-10T06:32:06.385Z,78.81
2022-09-10T06:34:35.886Z,75.45
2022-09-10T06:37:04.263Z,75.99
2022-09-10T06:39:32.321Z,69.77
2022-09-10T06:42:00.604Z,65.93
2022-09-10T06:44:29.591Z,71.10
2022-09-10T06:47:32.477Z,71.40
2022-09-10T06:49:47.453Z,73.26
2022-09-10T06:52:15.435Z,69.12
2022-09-10T06:54:43.358Z,61.24
2022-09-10T06:57:11.479Z,59.58
2022-09-10T06:59:39.374Z,64.34
2022-09-10T07:02:07.364Z,63.91
2022-09-10T07:04:35.325Z,61.90
2022-09-10T07:07:04.636Z,59.66
2022-09-10T07:09:32.602Z,55.80
2022-09-10T07:12:00.513Z,57.80
2022-09-10T07:14:28.510Z,56.11
2022-09-10T07:16:57.595Z,53.33
2022-09-10T07:19:25.711Z,56.81
2022-09-10T07:21:53.628Z,51.24
2022-09-10T07:24:22.946Z,53.02
2022-09-10T07:26:50.863Z,51.56
2022-09-10T07:29:19.659Z,53.02
2022-09-10T07:31:48.320Z,50.07
2022-09-10T07:34:16.510Z,52.10
2022-09-10T07:36:44.474Z,50.83
2022-09-10T07:39:12.406Z,48.27
2022-09-10T07:41:41.737Z,49.20
2022-09-10T07:44:09.658Z,47.86
2022-09-10T07:46:38.062Z,48.59
2022-09-10T07:49:06.110Z,48.52
2022-09-10T07:51:35.661Z,48.80
2022-09-10T07:54:04.414Z,49.45
2022-09-10T07:56:34.683Z,47.67
2022-09-10T07:59:03.993Z,48.55
2022-09-10T08:01:32.252Z,51.14
2022-09-10T08:04:00.492Z,49.84
2022-09-10T08:06:28.455Z,48.37
2022-09-10T08:08:56.382Z,49.58
2022-09-10T08:11:24.435Z,46.75
2022-09-10T08:13:53.956Z,48.59
2022-09-10T08:16:25.286Z,47.05
2022-09-10T08:18:53.264Z,48.00
2022-09-10T08:21:21.282Z,48.78
2022-09-10T08:23:51.056Z,50.12
2022-09-10T08:26:20.105Z,51.87
2022-09-10T08:28:48.523Z,51.62
2022-09-10T08:31:16.787Z,55.24
2022-09-10T08:33:49.395Z,49.06
2022-09-10T08:36:18.446Z,49.53
2022-09-10T08:38:47.381Z,51.36
2022-09-10T08:41:28.253Z,54.20
2022-09-10T08:43:59.435Z,51.73
2022-09-10T08:46:30.754Z,47.42
2022-09-10T08:49:08.346Z,52.04
2022-09-10T08:51:43.471Z,48.81
2022-09-10T08:54:16.306Z,50.26
2022-09-10T08:56:44.843Z,51.66
2022-09-10T08:59:22.434Z,47.97
2022-09-10T09:01:55.909Z,47.27
2022-09-10T09:04:34.114Z,45.95
2022-09-10T09:07:10.462Z,46.16
2022-09-10T09:09:38.417Z,45.37
2022-09-10T09:12:16.227Z,44.11
2022-09-10T09:14:54.618Z,45.31
2022-09-10T09:17:39.214Z,41.79
2022-09-10T09:20:18.281Z,46.94
2022-09-10T09:22:53.287Z,45.49
2022-09-10T09:25:28.905Z,43.16
2022-09-10T09:27:58.739Z,46.07
2022-09-10T09:30:32.102Z,44.13
2022-09-10T09:33:05.668Z,44.39
2022-09-10T09:35:44.183Z,43.82
2022-09-10T09:38:22.335Z,42.97
2022-09-10T09:40:52.985Z,43.28
2022-09-10T09:43:29.817Z,43.09
2022-09-10T09:45:58.185Z,44.91
2022-09-10T09:48:26.960Z,46.05
2022-09-10T09:51:00.414Z,44.32
2022-09-10T09:53:31.049Z,45.29
2022-09-10T09:56:01.325Z,43.83
2022-09-10T09:58:32.217Z,42.95
2022-09-10T10:01:16.802Z,43.52
2022-09-10T10:03:58.821Z,44.72
2022-09-10T10:06:31.225Z,42.79
2022-09-10T10:09:01.781Z,45.19
2022-09-10T10:11:49.017Z,44.21
2022-09-10T10:14:39.440Z,45.81
2022-09-10T10:17:38.322Z,45.99
2022-09-10T10:20:09.740Z,46.95
2022-09-10T10:22:40.670Z,48.53
2022-09-10T10:25:40.445Z,49.20
2022-09-10T10:28:27.564Z,45.74
2022-09-10T10:30:59.192Z,45.70
2022-09-10T10:33:29.824Z,47.51
2022-09-10T10:36:07.637Z,46.54
2022-09-10T10:38:40.372Z,51.43
2022-09-10T10:41:29.749Z,44.71
2022-09-10T10:44:10.211Z,49.07
2022-09-10T10:46:46.004Z,43.78
2022-09-10T10:49:27.012Z,48.73
2022-09-10T10:52:05.554Z,46.90
2022-09-10T10:54:57.657Z,47.66
2022-09-10T10:57:40.513Z,46.92
2022-09-10T11:00:12.320Z,45.17
2022-09-10T11:02:46.749Z,44.49
2022-09-10T11:05:25.810Z,43.49
2022-09-10T11:07:56.500Z,41.71
2022-09-10T11:10:32.943Z,47.01
2022-09-10T11:13:09.411Z,51.15
2022-09-10T11:15:43.543Z,52.68
2022-09-10T11:18:19.464Z,44.04
2022-09-10T11:20:54.462Z,47.75
2022-09-10T11:23:30.823Z,48.63
2022-09-10T11:26:07.166Z,47.40
2022-09-10T11:28:39.835Z,46.73
2022-09-10T11:31:15.406Z,50.26
2022-09-10T11:33:53.416Z,49.12
2022-09-10T11:36:28.230Z,52.67
2022-09-10T11:39:09.354Z,52.25
2022-09-10T11:41:43.281Z,48.12
2022-09-10T11:44:26.639Z,46.77
2022-09-10T11:47:04.225Z,46.27
2022-09-10T11:49:43.260Z,48.17
2022-09-10T11:52:12.595Z,43.88
2022-09-10T11:54:42.308Z,47.63
2022-09-10T11:57:23.331Z,44.72
2022-09-10T12:00:15.827Z,47.83
2022-09-10T12:03:13.810Z,45.07
2022-09-10T12:05:54.405Z,41.01
2022-09-10T12:08:34.018Z,41.28
2022-09-10T12:11:14.088Z,41.44
2022-09-10T12:13:45.776Z,46.40
2022-09-10T12:16:22.393Z,48.14
2022-09-10T12:18:53.061Z,47.05
2022-09-10T12:21:32.504Z,42.84
2022-09-10T12:24:03.290Z,44.59
2022-09-10T12:26:41.551Z,48.79
2022-09-10T12:29:27.799Z,46.73
2022-09-10T12:32:37.106Z,49.41
2022-09-10T12:35:46.265Z,47.61
2022-09-10T12:38:49.794Z,49.45
2022-09-10T12:41:36.185Z,51.19
2022-09-10T12:44:05.868Z,53.28
2022-09-10T12:46:35.512Z,54.18
2022-09-10T12:49:11.938Z,56.69
2022-09-10T12:51:56.789Z,57.44
2022-09-10T12:54:44.683Z,57.35
2022-09-10T12:57:31.635Z,59.20
2022-09-10T13:00:18.702Z,60.00
2022-09-10T13:02:58.843Z,52.40
2022-09-10T13:05:33.171Z,56.64
2022-09-10T13:08:20.624Z,60.02
2022-09-10T13:11:06.416Z,60.16
2022-09-10T13:13:38.825Z,56.68
2022-09-10T13:16:15.673Z,52.14
2022-09-10T13:18:46.732Z,58.38
2022-09-10T13:21:52.416Z,58.28
2022-09-10T13:24:59.660Z,56.56
2022-09-10T13:27:38.015Z,53.36
2022-09-10T13:30:17.446Z,53.32
2022-09-10T13:32:48.853Z,54.00
2022-09-10T13:35:42.313Z,50.30
2022-09-10T13:38:19.590Z,56.56
2022-09-10T13:41:02.781Z,57.83
2022-09-10T13:43:47.922Z,58.97
2022-09-10T13:46:24.668Z,59.80
2022-09-10T13:48:58.551Z,56.12
2022-09-10T13:51:34.889Z,59.31
2022-09-10T13:54:09.313Z,59.80
2022-09-10T13:56:38.925Z,59.58
2022-09-10T13:59:08.217Z,61.07
2022-09-10T14:01:50.563Z,59.18
2022-09-10T14:04:31.879Z,59.97
2022-09-10T14:07:05.562Z,62.12
2022-09-10T14:09:35.289Z,62.00
2022-09-10T14:12:05.874Z,64.18
2022-09-10T14:14:39.895Z,64.96
2022-09-10T14:17:12.622Z,65.15
2022-09-10T14:19:49.385Z,57.39
2022-09-10T14:22:22.350Z,59.39
2022-09-10T14:24:53.794Z,55.20
2022-09-10T14:27:25.924Z,54.61
2022-09-10T14:29:57.444Z,58.04
2022-09-10T14:32:33.550Z,59.38
2022-09-10T14:35:37.769Z,63.76
2022-09-10T14:38:23.164Z,65.04
2022-09-10T14:40:56.065Z,65.97
2022-09-10T14:43:30.549Z,66.95
2022-09-10T14:45:58.925Z,66.50
2022-09-10T14:48:29.830Z,64.43
2022-09-10T14:51:10.660Z,65.14
2022-09-10T14:53:42.143Z,66.03
2022-09-10T14:56:23.061Z,67.00
2022-09-10T14:58:59.337Z,68.10
2022-09-10T15:01:27.630Z,68.81
2022-09-10T15:03:55.640Z,67.91
2022-09-10T15:06:26.340Z,67.76
2022-09-10T15:08:57.184Z,66.91
2022-09-10T15:11:27.421Z,67.38
2022-09-10T15:13:58.851Z,66.77
2022-09-10T15:16:26.862Z,65.64
2022-09-10T15:18:54.784Z,66.56
2022-09-10T15:21:23.146Z,66.29
2022-09-10T15:23:51.097Z,67.34
2022-09-10T15:26:20.930Z,68.90
2022-09-10T15:28:48.902Z,67.96
2022-09-10T15:31:18.393Z,68.41
2022-09-10T15:33:46.402Z,68.51
2022-09-10T15:36:14.331Z,68.94
2022-09-10T15:38:42.727Z,68.82
2022-09-10T15:41:13.003Z,67.95
2022-09-10T15:43:44.313Z,68.25
2022-09-10T15:46:13.566Z,69.51
2022-09-10T15:48:41.894Z,69.67
2022-09-10T15:51:14.930Z,69.74
2022-09-10T15:53:43.715Z,70.26
2022-09-10T15:56:12.934Z,70.77
2022-09-10T15:58:43.421Z,71.72
2022-09-10T16:01:13.055Z,71.86
2022-09-10T16:03:46.451Z,71.62
2022-09-10T16:06:14.474Z,72.04
2022-09-10T16:08:42.995Z,71.92
2022-09-10T16:11:12.901Z,72.37
2022-09-10T16:13:43.728Z,72.47
2022-09-10T16:16:15.669Z,72.52
2022-09-10T16:18:43.906Z,72.22
2022-09-10T16:21:15.674Z,72.53
2022-09-10T16:23:44.470Z,72.76
2022-09-10T16:26:16.055Z,74.67
2022-09-10T16:28:49.940Z,76.16
2022-09-10T16:31:19.598Z,73.39
2022-09-10T16:33:51.691Z,69.77
2022-09-10T16:36:22.421Z,64.91
2022-09-10T16:38:54.256Z,67.63
2022-09-10T16:41:23.441Z,65.52
2022-09-10T16:43:53.694Z,68.14
2022-09-10T16:46:21.628Z,67.71
2022-09-10T16:48:53.178Z,68.67
2022-09-10T16:51:23.613Z,68.85
2022-09-10T16:53:56.944Z,70.32
2022-09-10T16:56:26.657Z,70.05
2022-09-10T16:58:55.947Z,67.37
2022-09-10T17:01:23.928Z,69.22
2022-09-10T17:03:52.421Z,69.57
2022-09-10T17:06:22.146Z,70.94
2022-09-10T17:08:50.235Z,67.58
2022-09-10T17:11:19.967Z,69.66
2022-09-10T17:13:48.323Z,70.64
2022-09-10T17:16:24.906Z,65.98
2022-09-10T17:18:57.485Z,68.98
2022-09-10T17:21:26.529Z,66.21
2022-09-10T17:23:55.419Z,67.20
2022-09-10T17:26:24.267Z,70.97
2022-09-10T17:28:56.510Z,71.74
2022-09-10T17:31:27.523Z,73.07
2022-09-10T17:33:56.718Z,74.34
2022-09-10T17:36:26.390Z,76.79
2022-09-10T17:38:54.775Z,79.95
2022-09-10T17:41:24.359Z,87.06
2022-09-10T17:43:52.522Z,88.85
2022-09-10T17:46:23.485Z,89.49
2022-09-10T17:48:54.220Z,91.39
2022-09-10T17:51:24.270Z,90.75
2022-09-10T17:53:53.056Z,93.07
2022-09-10T17:56:21.855Z,95.75
2022-09-10T17:58:50.952Z,95.14
2022-09-10T18:01:23.684Z,95.71
2022-09-10T18:03:53.626Z,95.75
2022-09-10T18:06:22.496Z,96.95
2022-09-10T18:08:50.507Z,97.27
2022-09-10T18:11:21.255Z,97.82
2022-09-10T18:13:51.629Z,99.57
2022-09-10T18:16:22.464Z,100.00
2022-09-10T18:18:55.582Z,100.00
2022-09-10T18:21:26.019Z,100.00
2022-09-10T18:23:55.777Z,100.00
2022-09-10T18:26:25.482Z,100.00
2022-09-10T18:28:55.889Z,100.00
2022-09-10T18:31:25.252Z,100.00
2022-09-10T18:33:55.815Z,100.00
2022-09-10T18:36:25.594Z,100.00
2022-09-10T18:38:53.990Z,100.00
2022-09-10T18:41:24.271Z,100.00
2022-09-10T18:43:53.902Z,100.00
2022-09-10T18:46:23.606Z,100.00
2022-09-10T18:48:52.354Z,100.00
2022-09-10T18:51:24.821Z,100.00
2022-09-10T18:53:54.293Z,100.00
2022-09-10T18:56:25.430Z,100.00
2022-09-10T18:58:55.869Z,100.00
2022-09-10T19:01:25.306Z,100.00
2022-09-10T19:03:53.447Z,100.00
2022-09-10T19:06:25.634Z,100.00
2022-09-10T19:08:55.561Z,100.00
2022-09-10T19:11:24.557Z,100.00
2022-09-10T19:13:54.123Z,99.96
2022-09-10T19:16:24.378Z,100.00
2022-09-10T19:18:53.698Z,100.00
2022-09-10T19:21:24.577Z,100.00
2022-09-10T19:23:59.458Z,100.00
2022-09-10T19:26:29.962Z,100.00
2022-09-10T19:28:58.916Z,100.00
2022-09-10T19:31:28.488Z,100.00
2022-09-10T19:33:57.726Z,100.00
2022-09-10T19:36:28.562Z,100.00
2022-09-10T19:38:56.503Z,100.00
2022-09-10T19:41:25.628Z,100.00
2022-09-10T19:43:55.245Z,100.00
2022-09-10T19:46:25.236Z,100.00
2022-09-10T19:48:53.347Z,100.00
2022-09-10T19:51:21.827Z,100.00
2022-09-10T19:53:51.527Z,100.00
2022-09-10T19:56:21.853Z,100.00
2022-09-10T19:58:51.786Z,100.00
2022-09-10T20:01:21.944Z,100.00
2022-09-10T20:03:50.814Z,100.00
2022-09-10T20:06:21.459Z,100.00
2022-09-10T20:08:50.871Z,100.00
2022-09-10T20:11:21.220Z,100.00
2022-09-10T20:13:50.039Z,100.00
2022-09-10T20:16:18.366Z,100.00
2022-09-10T20:18:46.734Z,100.00
2022-09-10T20:21:16.602Z,100.00
2022-09-10T20:23:46.497Z,100.00
2022-09-10T20:26:17.503Z,100.00
2022-09-10T20:28:45.675Z,100.00
2022-09-10T20:31:14.354Z,100.00
2022-09-10T20:33:43.637Z,100.00
2022-09-10T20:36:15.206Z,100.00
2022-09-10T20:38:43.599Z,100.00
2022-09-10T20:41:13.153Z,100.00
2022-09-10T20:43:42.896Z,100.00
2022-09-10T20:46:16.055Z,100.00
2022-09-10T20:48:49.047Z,100.00
2022-09-10T20:51:18.287Z,100.00
2022-09-10T20:53:46.926Z,100.00
2022-09-10T20:56:17.693Z,100.00
2022-09-10T20:58:48.063Z,100.00
2022-09-10T21:01:18.995Z,100.00
2022-09-10T21:03:47.710Z,100.00
2022-09-10T21:06:19.410Z,100.00
2022-09-10T21:08:50.105Z,100.00
2022-09-10T21:11:19.971Z,100.00
2022-09-10T21:13:51.069Z,100.00
2022-09-10T21:16:20.702Z,100.00
2022-09-10T21:18:53.739Z,100.00
2022-09-10T21:21:25.742Z,100.00
2022-09-10T21:23:55.482Z,100.00
2022-09-10T21:26:26.285Z,100.00
2022-09-10T21:28:57.461Z,100.00
2022-09-10T21:31:26.114Z,100.00
2022-09-10T21:33:59.408Z,100.00
2022-09-10T21:36:30.767Z,100.00
2022-09-10T21:39:00.180Z,100.00
2022-09-10T21:41:31.276Z,100.00
2022-09-10T21:44:01.309Z,100.00
2022-09-10T21:46:29.816Z,100.00
2022-09-10T21:48:58.286Z,100.00
2022-09-10T21:51:26.519Z,100.00
2022-09-10T21:53:56.383Z,100.00
2022-09-10T21:56:26.048Z,100.00
2022-09-10T21:58:54.511Z,100.00
2022-09-10T22:01:25.822Z,100.00
2022-09-10T22:03:54.878Z,100.00
2022-09-10T22:06:24.133Z,100.00
2022-09-10T22:08:53.846Z,100.00
2022-09-10T22:11:24.369Z,100.00
2022-09-10T22:13:53.911Z,100.00
2022-09-10T22:16:23.690Z,100.00
2022-09-10T22:18:52.543Z,100.00
2022-09-10T22:21:20.906Z,100.00
2022-09-10T22:23:51.846Z,100.00
2022-09-10T22:26:21.966Z,100.00
2022-09-10T22:28:52.766Z,100.00
2022-09-10T22:31:22.282Z,100.00
2022-09-10T22:33:55.897Z,100.00
2022-09-10T22:36:24.769Z,100.00
2022-09-10T22:38:54.347Z,100.00
2022-09-10T22:41:23.263Z,100.00
2022-09-10T22:43:51.606Z,100.00
2022-09-10T22:46:20.436Z,100.00
2022-09-10T22:48:48.846Z,100.00
2022-09-10T22:51:20.212Z,100.00
2022-09-10T22:53:48.399Z,100.00
2022-09-10T22:56:17.740Z,100.00
2022-09-10T22:58:46.343Z,100.00
2022-09-10T23:01:17.082Z,100.00
2022-09-10T23:03:45.940Z,100.00
2022-09-10T23:06:15.817Z,100.00
2022-09-10T23:08:46.738Z,100.00
2022-09-10T23:11:17.323Z,100.00
2022-09-10T23:13:46.728Z,100.00
2022-09-10T23:16:17.176Z,100.00
2022-09-10T23:18:50.628Z,100.00
2022-09-10T23:21:19.491Z,100.00
2022-09-10T23:23:50.334Z,100.00
2022-09-10T23:26:18.810Z,100.00
2022-09-10T23:28:47.319Z,100.00
2022-09-10T23:31:17.440Z,100.00
2022-09-10T23:33:47.128Z,100.00
2022-09-10T23:36:15.634Z,100.00
2022-09-10T23:38:43.904Z,100.00
2022-09-10T23:41:13.536Z,100.00
2022-09-10T23:43:41.685Z,100.00
2022-09-10T23:46:10.742Z,100.00
2022-09-10T23:48:39.411Z,100.00
2022-09-10T23:51:08.177Z,100.00
2022-09-10T23:53:36.098Z,100.00
2022-09-10T23:56:04.928Z,100.00
2022-09-10T23:58:34.501Z,100.00
